Atlantic Monterrey — 9V2171 — position and weather

sailwx.info

Track history (hours):
 
Tides and Currents Weather Stations Pressure Air Temp Water Temp Dewpoint Dewpoint Depression Visibility Wind Speed Wind Dir Waves Ship Positions

Atlantic Monterrey

Last reported at 2018-Jun-22 19:04 UTC. Time now 2018-Jun-24 15:09 UTC.
Position N 39°45' W 128°51'.

Length 199 m; draft 12.2 m.

Type: Cargo ship. MMSI: 563005500.

Date/timePositionNaut miles runAvg speedWind from/ knotsBaromVisibWave heightAir tempDewpointWater temp
2018-Jun-22 19:04N 39°45' W 128°51'412.1
2018-Jun-22 18:45N 39°48' W 128°52'511.9
2018-Jun-22 18:21N 39°53' W 128°52'310 9.7
2018-Jun-21 10:19N 44°28' W 125°39'712.0
2018-Jun-21 09:42N 44°36' W 125°38'311.6
2018-Jun-21 09:27N 44°39' W 125°38'811.7
2018-Jun-21 08:46N 44°47' W 125°37'811.9
2018-Jun-21 08:04N 44°55' W 125°37'111.8
2018-Jun-21 08:00N 44°56' W 125°36'611.8
2018-Jun-21 07:30N 45°02' W 125°36'611.4
2018-Jun-21 06:59N 45°08' W 125°36'611.5
2018-Jun-21 06:30N 45°13' W 125°35'811.8
2018-Jun-21 05:49N 45°21' W 125°35'411.9
2018-Jun-21 05:30N 45°25' W 125°34'611.5
2018-Jun-21 05:00N 45°31' W 125°34'611.6
2018-Jun-21 04:30N 45°36' W 125°33'611.8
2018-Jun-21 04:00N 45°42' W 125°32'711.7
2018-Jun-21 03:25N 45°49' W 125°32'912.5
2018-Jun-21 02:40N 45°58' W 125°32'311.7
2018-Jun-21 02:26N 46°01' W 125°31'711.0
2018-Jun-21 01:49N 46°08' W 125°31'613.2
2018-Jun-21 01:22N 46°14' W 125°30'511.8
2018-Jun-21 00:59N 46°18' W 125°30'611.6
2018-Jun-21 00:30N 46°24' W 125°30'811.3
2018-Jun-20 23:46N 46°32' W 125°29'511.9
2018-Jun-20 23:19N 46°38' W 125°28'611.7
2018-Jun-20 22:49N 46°43' W 125°28'511.7
2018-Jun-20 22:23N 46°49' W 125°27'714.9
2018-Jun-20 21:55N 46°56' W 125°27'4 8.5
2018-Jun-20 21:28N 46°59' W 125°27'715.2
2018-Jun-20 21:00N 47°06' W 125°26'610.2
2018-Jun-20 20:27N 47°12' W 125°25'510.4
2018-Jun-20 19:58N 47°17' W 125°25'711.9
2018-Jun-20 19:22N 47°24' W 125°24'412.0
2018-Jun-20 19:00N 47°28' W 125°24'812.7
2018-Jun-20 18:24N 47°36' W 125°23'811.4
2018-Jun-20 17:45N 47°44' W 125°22'2411.8
2018-Jun-20 15:41N 48°08' W 125°20'211.7
2018-Jun-20 15:30N 48°10' W 125°20'611.0
2018-Jun-20 14:55N 48°16' W 125°18'511.3
2018-Jun-20 14:29N 48°20' W 125°13'611.2
2018-Jun-20 13:59N 48°24' W 125°08'510.9
2018-Jun-20 13:30N 48°29' W 125°04'5 9.8
2018-Jun-20 13:00N 48°31' W 124°57'611.6
2018-Jun-20 12:30N 48°31' W 124°48'612.2
2018-Jun-20 12:00N 48°30' W 124°39'612.3
2018-Jun-20 11:30N 48°28' W 124°31'612.3
2018-Jun-20 11:00N 48°25' W 124°22'612.5
2018-Jun-20 10:30N 48°22' W 124°14'612.7
2018-Jun-20 10:00N 48°20' W 124°05'713.1
2018-Jun-20 09:29N 48°18' W 123°55'712.9
2018-Jun-20 08:59N 48°17' W 123°45'1211.7
2018-Jun-20 07:57N 48°19' W 123°28'510.9
2018-Jun-20 07:30N 48°23' W 123°24'5 9.6
2018-Jun-20 07:00N 48°23' W 123°17'610.4
2018-Jun-20 06:28N 48°28' W 123°12'510.7
2018-Jun-20 05:58N 48°33' W 123°13'510.0
2018-Jun-20 05:30N 48°38' W 123°15'5 8.8
2018-Jun-20 04:59N 48°42' W 123°14'510.1
2018-Jun-20 04:30N 48°44' W 123°08'5 9.5
2018-Jun-20 04:00N 48°47' W 123°02'4 8.3
2018-Jun-20 03:28N 48°51' W 123°03'510.8
2018-Jun-20 03:00N 48°55' W 123°09'510.9
2018-Jun-20 02:30N 48°58' W 123°15'510.6
2018-Jun-20 02:00N 49°02' W 123°21'5 9.9
2018-Jun-20 01:28N 49°07' W 123°24'511.7
2018-Jun-20 01:00N 49°12' W 123°22'611.5
2018-Jun-20 00:30N 49°17' W 123°18'511.1
2018-Jun-20 00:00N 49°19' W 123°10'4 8.3
2018-Jun-19 23:30N 49°18' W 123°05'0 0.9
2018-Jun-19 23:00N 49°18' W 123°04'0 0.1
2018-Jun-19 22:30N 49°18' W 123°04'0 0.0
2018-Jun-19 22:00N 49°18' W 123°04'0 0.0
2018-Jun-19 21:30N 49°18' W 123°04'0 0.0
2018-Jun-19 21:00N 49°18' W 123°04'0 0.1
2018-Jun-19 20:30N 49°18' W 123°04'0 0.1
2018-Jun-19 20:00N 49°18' W 123°04'0 0.2
2018-Jun-19 19:30N 49°18' W 123°04'0 0.2
2018-Jun-19 19:00N 49°18' W 123°04'0 0.1
2018-Jun-19 18:30N 49°18' W 123°04'0 0.0
2018-Jun-19 18:00N 49°18' W 123°04'0 0.1
2018-Jun-19 17:30N 49°18' W 123°04'0 0.0
2018-Jun-19 16:57N 49°18' W 123°04'0 0.1
2018-Jun-19 16:30N 49°18' W 123°04'0 0.0
2018-Jun-19 16:00N 49°18' W 123°04'0 0.1
2018-Jun-19 15:30N 49°18' W 123°04'0 0.1
2018-Jun-19 15:00N 49°18' W 123°04'0 0.2
2018-Jun-19 14:30N 49°18' W 123°04'0 0.2
2018-Jun-19 14:00N 49°18' W 123°04'0 0.1
2018-Jun-19 13:27N 49°18' W 123°04'0 0.0
2018-Jun-19 13:00N 49°18' W 123°04'0 0.0
2018-Jun-19 12:30N 49°18' W 123°04'0 0.0
2018-Jun-19 12:00N 49°18' W 123°04'0 0.0
2018-Jun-19 11:27N 49°18' W 123°04'0 0.0
2018-Jun-19 11:00N 49°18' W 123°04'0 0.0
2018-Jun-19 10:30N 49°18' W 123°04'0 0.0
2018-Jun-19 10:00N 49°18' W 123°04'0 0.1
2018-Jun-19 09:30N 49°18' W 123°04'0 0.0
2018-Jun-19 09:00N 49°18' W 123°04'0 0.1
2018-Jun-19 08:30N 49°18' W 123°04'0 0.2
2018-Jun-19 08:00N 49°18' W 123°04'0 0.2
2018-Jun-19 07:30N 49°18' W 123°04'0 0.1
2018-Jun-19 07:00N 49°18' W 123°04'0 0.1
2018-Jun-19 06:30N 49°18' W 123°04'0 0.1
2018-Jun-19 06:00N 49°18' W 123°04'0 0.1
2018-Jun-19 05:30N 49°18' W 123°04'0 0.1
2018-Jun-19 05:00N 49°18' W 123°04'0 0.1
2018-Jun-19 04:30N 49°18' W 123°04'0 0.0
2018-Jun-19 04:00N 49°18' W 123°04'0 0.1
2018-Jun-19 03:30N 49°18' W 123°04'0 0.1
2018-Jun-19 03:00N 49°18' W 123°04'0 0.0
2018-Jun-19 02:30N 49°18' W 123°04'0 0.1
2018-Jun-19 02:00N 49°18' W 123°04'0 0.0
2018-Jun-19 01:30N 49°18' W 123°04'0 0.1
2018-Jun-19 00:57N 49°18' W 123°04'0 0.0
2018-Jun-19 00:30N 49°18' W 123°04'0 0.1
2018-Jun-19 00:00N 49°18' W 123°04'0 0.2
2018-Jun-18 23:30N 49°18' W 123°04'0 0.8
2018-Jun-18 22:57N 49°18' W 123°04'0 0.0
2018-Jun-18 22:30N 49°18' W 123°04'0 0.0
2018-Jun-18 22:00N 49°18' W 123°04'0 0.0
2018-Jun-18 21:30N 49°18' W 123°04'0 0.0
2018-Jun-18 21:00N 49°18' W 123°04'0 0.0
2018-Jun-18 20:30N 49°18' W 123°04'0 0.0
2018-Jun-18 20:00N 49°18' W 123°04'0 0.0
2018-Jun-18 19:30N 49°18' W 123°04'0 0.0
2018-Jun-18 19:00N 49°18' W 123°04'0 0.0
2018-Jun-18 18:27N 49°18' W 123°04'0 0.0
2018-Jun-18 18:00N 49°18' W 123°04'0 0.0
2018-Jun-18 17:30N 49°18' W 123°04'0 0.0
2018-Jun-18 17:00N 49°18' W 123°04'0 0.0
2018-Jun-18 16:30N 49°18' W 123°04'0 0.0
2018-Jun-18 16:00N 49°18' W 123°04'0 0.0
2018-Jun-18 15:30N 49°18' W 123°04'0 0.0
2018-Jun-18 15:00N 49°18' W 123°04'0 0.0
2018-Jun-18 14:30N 49°18' W 123°04'0 0.0
2018-Jun-18 14:00N 49°18' W 123°04'0 0.0
2018-Jun-18 13:30N 49°18' W 123°04'0 0.0
2018-Jun-18 13:00N 49°18' W 123°04'0 0.0
2018-Jun-18 12:30N 49°18' W 123°04'0 0.0
2018-Jun-18 12:00N 49°18' W 123°04'0 0.0
2018-Jun-18 11:30N 49°18' W 123°04'0 0.0
2018-Jun-18 11:00N 49°18' W 123°04'0 0.0
2018-Jun-18 10:30N 49°18' W 123°04'0 0.0
2018-Jun-18 10:00N 49°18' W 123°04'0 0.0
2018-Jun-18 09:30N 49°18' W 123°04'0 0.0
2018-Jun-18 09:00N 49°18' W 123°04'0 0.0
2018-Jun-18 08:30N 49°18' W 123°04'0 0.0
2018-Jun-18 08:00N 49°18' W 123°04'0 0.0
2018-Jun-18 07:30N 49°18' W 123°04'0 0.0
2018-Jun-18 07:00N 49°18' W 123°04'0 0.0
2018-Jun-18 06:30N 49°18' W 123°04'0 0.0
2018-Jun-18 06:00N 49°18' W 123°04'0 0.0
2018-Jun-18 05:30N 49°18' W 123°04'0 0.0
2018-Jun-18 05:00N 49°18' W 123°04'0 0.0
2018-Jun-18 04:30N 49°18' W 123°04'0 0.0
2018-Jun-18 04:00N 49°18' W 123°04'0 0.0
2018-Jun-18 03:30N 49°18' W 123°04'0 0.0
2018-Jun-18 03:00N 49°18' W 123°04'0 0.0
2018-Jun-18 02:30N 49°18' W 123°04'0 0.0
2018-Jun-18 02:00N 49°18' W 123°04'0 0.0
2018-Jun-18 01:30N 49°18' W 123°04'0 0.0
2018-Jun-18 01:00N 49°18' W 123°04'0 0.0
2018-Jun-18 00:30N 49°18' W 123°04'0 0.0
2018-Jun-18 00:00N 49°18' W 123°04'0 0.0
2018-Jun-17 23:30N 49°18' W 123°04'0 0.0
2018-Jun-17 23:00N 49°18' W 123°04'0 0.0
2018-Jun-17 22:30N 49°18' W 123°04'0 0.0
2018-Jun-17 22:00N 49°18' W 123°04'0 0.0
2018-Jun-17 21:30N 49°18' W 123°04'0 0.0
2018-Jun-17 21:00N 49°18' W 123°04'0 0.0
2018-Jun-17 20:30N 49°18' W 123°04'0 0.0
2018-Jun-17 20:00N 49°18' W 123°04'0 0.0
2018-Jun-17 19:30N 49°18' W 123°04'0 0.0
2018-Jun-17 19:00N 49°18' W 123°04'0 0.0
2018-Jun-17 18:30N 49°18' W 123°04'0 0.0
2018-Jun-17 18:00N 49°18' W 123°04'0 0.0
2018-Jun-17 17:30N 49°18' W 123°04'0 0.0
2018-Jun-17 17:00N 49°18' W 123°04'0 0.0
2018-Jun-17 16:30N 49°18' W 123°04'0 0.0
2018-Jun-17 16:00N 49°18' W 123°04'0 0.0
2018-Jun-17 15:30N 49°18' W 123°04'0 0.0
2018-Jun-17 15:00N 49°18' W 123°04'0 0.0
2018-Jun-17 14:30N 49°18' W 123°04'0 0.0
2018-Jun-17 14:00N 49°18' W 123°04'0 0.0
2018-Jun-17 13:30N 49°18' W 123°04'0 0.0
2018-Jun-17 13:00N 49°18' W 123°04'0 0.0
2018-Jun-17 12:30N 49°18' W 123°04'0 0.0
2018-Jun-17 12:00N 49°18' W 123°04'0 0.0
2018-Jun-17 11:30N 49°18' W 123°04'0 0.0
2018-Jun-17 11:00N 49°18' W 123°04'0 0.0
2018-Jun-17 10:30N 49°18' W 123°04'0 0.0
2018-Jun-17 10:00N 49°18' W 123°04'0 0.0
2018-Jun-17 09:30N 49°18' W 123°04'0 0.0
2018-Jun-17 09:00N 49°18' W 123°04'0 0.0
2018-Jun-17 08:30N 49°18' W 123°04'0 0.0
2018-Jun-17 08:00N 49°18' W 123°04'0 0.0
2018-Jun-17 07:30N 49°18' W 123°04'0 0.0
2018-Jun-17 07:00N 49°18' W 123°04'0 0.0
2018-Jun-17 06:30N 49°18' W 123°04'0 0.0
2018-Jun-17 06:00N 49°18' W 123°04'0 0.0
2018-Jun-17 05:30N 49°18' W 123°04'0 0.0
2018-Jun-17 05:00N 49°18' W 123°04'0 0.0
2018-Jun-17 04:30N 49°18' W 123°04'0 0.0
2018-Jun-17 04:00N 49°18' W 123°04'0 0.0
2018-Jun-17 03:30N 49°18' W 123°04'0 0.0
2018-Jun-17 03:00N 49°18' W 123°04'0 0.0
2018-Jun-17 02:30N 49°18' W 123°04'0 0.0
2018-Jun-17 02:00N 49°18' W 123°04'0 0.0
2018-Jun-17 01:30N 49°18' W 123°04'0 0.0
2018-Jun-17 01:00N 49°18' W 123°04'0 0.0
2018-Jun-17 00:30N 49°18' W 123°04'0 0.0
2018-Jun-17 00:00N 49°18' W 123°04'0 0.0
2018-Jun-16 23:30N 49°18' W 123°04'0 0.0
2018-Jun-16 23:00N 49°18' W 123°04'0 0.0
2018-Jun-16 22:30N 49°18' W 123°04'0 0.0
2018-Jun-16 22:00N 49°18' W 123°04'0 0.0
2018-Jun-16 21:30N 49°18' W 123°04'0 0.0
2018-Jun-16 21:00N 49°18' W 123°04'0 0.0
2018-Jun-16 20:30N 49°18' W 123°04'0 0.0
2018-Jun-16 20:00N 49°18' W 123°04'0 0.0
2018-Jun-16 19:30N 49°18' W 123°04'0 0.0
2018-Jun-16 19:00N 49°18' W 123°04'0 0.0
2018-Jun-16 18:30N 49°18' W 123°04'0 0.0
2018-Jun-16 18:00N 49°18' W 123°04'0 0.0
2018-Jun-16 17:30N 49°18' W 123°04'0 0.0
2018-Jun-16 17:00N 49°18' W 123°04'0 0.0
2018-Jun-16 16:30N 49°18' W 123°04'0 0.0
2018-Jun-16 16:00N 49°18' W 123°04'0 0.0
2018-Jun-16 15:30N 49°18' W 123°04'0 0.0
2018-Jun-16 15:00N 49°18' W 123°04'0 0.0
2018-Jun-16 14:30N 49°18' W 123°04'0 0.0
2018-Jun-16 13:57N 49°18' W 123°04'0 0.0
2018-Jun-16 13:30N 49°18' W 123°04'0 0.0
2018-Jun-16 13:00N 49°18' W 123°04'0 0.0
2018-Jun-16 12:30N 49°18' W 123°04'0 0.0
2018-Jun-16 12:00N 49°18' W 123°04'0 0.0
2018-Jun-16 11:30N 49°18' W 123°04'0 0.0
2018-Jun-16 11:00N 49°18' W 123°04'0 0.0
2018-Jun-16 10:30N 49°18' W 123°04'0 0.0
2018-Jun-16 10:00N 49°18' W 123°04'0 0.0
2018-Jun-16 09:30N 49°18' W 123°04'0 0.0
2018-Jun-16 09:00N 49°18' W 123°04'0 0.0
2018-Jun-16 08:30N 49°18' W 123°04'0 0.0
2018-Jun-16 08:00N 49°18' W 123°04'0 0.0
2018-Jun-16 07:30N 49°18' W 123°04'0 0.0
2018-Jun-16 07:00N 49°18' W 123°04'0 0.0
2018-Jun-16 06:30N 49°18' W 123°04'0 0.0
2018-Jun-16 06:00N 49°18' W 123°04'0 0.0
2018-Jun-16 05:30N 49°18' W 123°04'0 0.0
2018-Jun-16 05:00N 49°18' W 123°04'0 0.0
2018-Jun-16 04:30N 49°18' W 123°04'0 0.0
2018-Jun-16 04:00N 49°18' W 123°04'0 0.0
2018-Jun-16 03:30N 49°18' W 123°04'0 0.0
2018-Jun-16 03:00N 49°18' W 123°04'0 0.0
2018-Jun-16 02:30N 49°18' W 123°04'0 0.0
2018-Jun-16 02:00N 49°18' W 123°04'0 0.0
2018-Jun-16 01:30N 49°18' W 123°04'0 0.0
2018-Jun-16 01:00N 49°18' W 123°04'0 0.0
2018-Jun-16 00:30N 49°18' W 123°04'0 0.0
2018-Jun-16 00:00N 49°18' W 123°04'0 0.0
2018-Jun-15 23:30N 49°18' W 123°04'0 0.8
2018-Jun-15 23:00N 49°18' W 123°05'1 1.2
2018-Jun-15 22:30N 49°18' W 123°05'0 0.1
2018-Jun-15 22:00N 49°18' W 123°06'0 0.2
2018-Jun-15 21:31N 49°18' W 123°06'1 1.7
2018-Jun-15 21:00N 49°18' W 123°07'4 7.6
2018-Jun-15 20:30N 49°19' W 123°13'2 3.2
2018-Jun-15 20:00N 49°20' W 123°15'0 0.0
2018-Jun-15 19:12N 49°20' W 123°15'0 0.4
2018-Jun-15 18:54N 49°20' W 123°15'0 0.1
2018-Jun-15 18:30N 49°20' W 123°15'0 0.1
2018-Jun-15 17:48N 49°20' W 123°15'0 0.1
2018-Jun-15 17:24N 49°20' W 123°15'0 0.0
2018-Jun-15 17:00N 49°20' W 123°15'0 0.0
2018-Jun-15 16:24N 49°20' W 123°15'0 0.1
2018-Jun-15 15:57N 49°20' W 123°15'0 0.1
2018-Jun-15 15:30N 49°20' W 123°15'0 0.1
2018-Jun-15 14:57N 49°20' W 123°15'0 0.0
2018-Jun-15 14:27N 49°20' W 123°15'0 0.0
2018-Jun-15 13:57N 49°20' W 123°15'0 0.0
2018-Jun-15 13:30N 49°20' W 123°15'0 0.1
2018-Jun-15 12:57N 49°20' W 123°15'0 0.2
2018-Jun-15 12:30N 49°20' W 123°15'0 0.3
2018-Jun-15 11:57N 49°20' W 123°15'0 0.1
2018-Jun-15 11:27N 49°20' W 123°15'0 0.1
2018-Jun-15 11:00N 49°20' W 123°15'0 0.1
2018-Jun-15 10:30N 49°20' W 123°15'0 0.1
2018-Jun-15 09:54N 49°20' W 123°15'0 0.1
2018-Jun-15 09:30N 49°20' W 123°15'0 0.0
2018-Jun-15 09:00N 49°20' W 123°15'0 0.2
2018-Jun-15 08:30N 49°20' W 123°15'0 0.1
2018-Jun-15 07:57N 49°20' W 123°15'0 0.2
2018-Jun-15 07:30N 49°20' W 123°15'0 0.1
2018-Jun-15 07:00N 49°20' W 123°15'0 0.0
2018-Jun-15 06:21N 49°20' W 123°15'0 0.1
2018-Jun-15 05:54N 49°20' W 123°15'0 0.1
2018-Jun-15 05:27N 49°20' W 123°15'0 0.2
2018-Jun-15 05:00N 49°20' W 123°15'0 0.3
2018-Jun-15 04:30N 49°20' W 123°15'0 0.2
2018-Jun-15 04:00N 49°20' W 123°15'0 0.0
2018-Jun-15 03:30N 49°20' W 123°15'0 0.1
2018-Jun-15 03:00N 49°20' W 123°15'0 0.0
2018-Jun-15 02:30N 49°20' W 123°15'0 0.0
2018-Jun-15 02:00N 49°20' W 123°15'0 0.0
2018-Jun-15 01:30N 49°20' W 123°15'0 0.0
2018-Jun-15 01:00N 49°20' W 123°15'0 0.0
2018-Jun-15 00:30N 49°20' W 123°15'0 0.0
2018-Jun-15 00:00N 49°20' W 123°15'0 0.0
2018-Jun-14 23:27N 49°20' W 123°15'0 0.3
2018-Jun-14 22:57N 49°20' W 123°15'0 0.1
2018-Jun-14 22:21N 49°20' W 123°15'0 0.2
2018-Jun-14 21:51N 49°20' W 123°15'0 0.1
2018-Jun-14 21:30N 49°20' W 123°15'0 0.1
2018-Jun-14 21:00N 49°20' W 123°15'0 0.0
2018-Jun-14 20:21N 49°20' W 123°15'0 0.0
2018-Jun-14 19:57N 49°20' W 123°15'0 0.0
2018-Jun-14 19:27N 49°20' W 123°15'0 0.0
2018-Jun-14 18:57N 49°20' W 123°15'0 0.0
2018-Jun-14 18:27N 49°20' W 123°15'0 0.0
2018-Jun-14 18:00N 49°20' W 123°15'0 0.0
2018-Jun-14 17:30N 49°20' W 123°15'0 0.0
2018-Jun-14 16:45N 49°20' W 123°15'0 0.1
2018-Jun-14 16:27N 49°20' W 123°15'0 0.0
2018-Jun-14 15:57N 49°20' W 123°15'0 0.0
2018-Jun-14 15:30N 49°20' W 123°15'0 0.0
2018-Jun-14 15:00N 49°20' W 123°15'0 0.0
2018-Jun-14 14:30N 49°20' W 123°15'0 0.0
2018-Jun-14 13:57N 49°20' W 123°15'0 0.1
2018-Jun-14 13:27N 49°20' W 123°15'0 0.0
2018-Jun-14 13:00N 49°20' W 123°15'0 0.1
2018-Jun-14 12:24N 49°20' W 123°15'0 0.2
2018-Jun-14 12:00N 49°20' W 123°15'0 0.1
2018-Jun-14 11:30N 49°20' W 123°15'0 0.1
2018-Jun-14 11:00N 49°20' W 123°15'0 0.1
2018-Jun-14 10:30N 49°20' W 123°15'0 0.0
2018-Jun-14 09:57N 49°20' W 123°15'0 0.0
2018-Jun-14 09:30N 49°20' W 123°15'0 0.1
2018-Jun-14 08:57N 49°20' W 123°15'0 0.1
2018-Jun-14 08:30N 49°20' W 123°15'0 0.1
2018-Jun-14 08:00N 49°20' W 123°15'0 0.0
2018-Jun-14 07:27N 49°20' W 123°15'0 0.0
2018-Jun-14 06:57N 49°20' W 123°15'0 0.0
2018-Jun-14 06:30N 49°20' W 123°15'0 0.0
2018-Jun-14 05:57N 49°20' W 123°15'0 0.1
2018-Jun-14 05:27N 49°20' W 123°15'0 0.2
2018-Jun-14 05:00N 49°20' W 123°15'0 0.3
2018-Jun-14 04:30N 49°20' W 123°15'0 0.2
2018-Jun-14 04:00N 49°20' W 123°15'0 0.1
2018-Jun-14 03:30N 49°20' W 123°15'0 0.0
2018-Jun-14 03:00N 49°20' W 123°15'0 0.0
2018-Jun-14 02:27N 49°20' W 123°15'0 0.0
2018-Jun-14 01:57N 49°20' W 123°15'0 0.1
2018-Jun-14 01:24N 49°20' W 123°15'0 0.1
2018-Jun-14 00:57N 49°20' W 123°15'0 0.1
2018-Jun-14 00:30N 49°20' W 123°15'0 0.1
2018-Jun-14 00:00N 49°20' W 123°15'0 0.1
2018-Jun-13 23:30N 49°20' W 123°15'0 0.1
2018-Jun-13 22:57N 49°20' W 123°15'0 0.1
2018-Jun-13 22:27N 49°20' W 123°15'0 0.1
2018-Jun-13 22:00N 49°20' W 123°15'0 0.3
2018-Jun-13 21:30N 49°20' W 123°15'0 0.0
2018-Jun-13 21:00N 49°20' W 123°15'0 0.0
2018-Jun-13 20:30N 49°20' W 123°15'0 0.0
2018-Jun-13 20:00N 49°20' W 123°15'0 0.0
2018-Jun-13 19:30N 49°20' W 123°15'0 0.0
2018-Jun-13 18:51N 49°20' W 123°15'0 0.0
2018-Jun-13 18:18N 49°20' W 123°15'0 0.1
2018-Jun-13 18:00N 49°20' W 123°15'0 0.1
2018-Jun-13 17:24N 49°20' W 123°15'0 0.1
2018-Jun-13 17:00N 49°20' W 123°15'0 0.0
2018-Jun-13 16:30N 49°20' W 123°15'0 0.1
2018-Jun-13 16:00N 49°20' W 123°15'0 0.0
2018-Jun-13 15:30N 49°20' W 123°15'0 0.0
2018-Jun-13 15:00N 49°20' W 123°15'0 0.1
2018-Jun-13 14:27N 49°20' W 123°15'0 0.0
2018-Jun-13 14:00N 49°20' W 123°15'0 0.1
2018-Jun-13 13:27N 49°20' W 123°15'0 0.0
2018-Jun-13 12:51N 49°20' W 123°15'0 0.1
2018-Jun-13 12:27N 49°20' W 123°15'0 0.0
2018-Jun-13 12:00N 49°20' W 123°15'0 0.0
2018-Jun-13 11:27N 49°20' W 123°15'0 0.0
2018-Jun-13 11:00N 49°20' W 123°15'0 0.0
2018-Jun-13 10:30N 49°20' W 123°15'0 0.0
2018-Jun-13 09:54N 49°20' W 123°15'0 0.0
2018-Jun-13 09:27N 49°20' W 123°15'0 0.1
2018-Jun-13 08:57N 49°20' W 123°15'0 0.0
2018-Jun-13 08:30N 49°20' W 123°15'0 0.1
2018-Jun-13 08:00N 49°20' W 123°15'0 0.0
2018-Jun-13 07:27N 49°20' W 123°15'0 0.1
2018-Jun-13 06:57N 49°20' W 123°15'0 0.0
2018-Jun-13 06:30N 49°20' W 123°15'0 0.0
2018-Jun-13 05:54N 49°20' W 123°15'0 0.0
2018-Jun-13 05:27N 49°20' W 123°15'0 0.0
2018-Jun-13 05:00N 49°20' W 123°15'0 0.2
2018-Jun-13 04:30N 49°20' W 123°15'0 0.1
2018-Jun-13 03:51N 49°20' W 123°15'0 0.1
2018-Jun-13 03:30N 49°20' W 123°15'0 0.0
2018-Jun-13 03:00N 49°20' W 123°15'0 0.2
2018-Jun-13 02:27N 49°20' W 123°15'0 0.3
2018-Jun-13 02:00N 49°20' W 123°15'0 0.2
2018-Jun-13 01:30N 49°20' W 123°15'0 0.0
2018-Jun-13 01:00N 49°20' W 123°15'0 0.0
2018-Jun-13 00:30N 49°20' W 123°15'0 0.1
2018-Jun-12 23:57N 49°20' W 123°15'0 0.1
2018-Jun-12 23:30N 49°20' W 123°15'0 0.0
2018-Jun-12 22:54N 49°20' W 123°15'0 0.0
2018-Jun-12 22:30N 49°20' W 123°15'0 0.1
2018-Jun-12 22:00N 49°20' W 123°15'0 0.1
2018-Jun-12 21:27N 49°20' W 123°15'0 0.4
2018-Jun-12 21:00N 49°20' W 123°15'0 0.1
2018-Jun-12 20:27N 49°20' W 123°15'0 0.1
2018-Jun-12 19:51N 49°20' W 123°15'0 0.1
2018-Jun-12 19:24N 49°20' W 123°15'  
Track history (hours):
 
Tides and Currents Weather Stations Pressure Air Temp Water Temp Dewpoint Dewpoint Depression Visibility Wind Speed Wind Dir Waves Ship Positions

Atlantic Monterrey

Last reported at 2018-Jun-22 19:04 UTC. Time now 2018-Jun-24 15:09 UTC.
Position N 39°45' W 128°51'.

Length 199 m; draft 12.2 m.

Type: Cargo ship. MMSI: 563005500.

Date/timePositionNaut miles runAvg speedWind from/ knotsBaromVisibWave heightAir tempDewpointWater temp
2018-Jun-22 19:04N 39°45' W 128°51'412.1
2018-Jun-22 18:45N 39°48' W 128°52'511.9
2018-Jun-22 18:21N 39°53' W 128°52'310 9.7
2018-Jun-21 10:19N 44°28' W 125°39'712.0
2018-Jun-21 09:42N 44°36' W 125°38'311.6
2018-Jun-21 09:27N 44°39' W 125°38'811.7
2018-Jun-21 08:46N 44°47' W 125°37'811.9
2018-Jun-21 08:04N 44°55' W 125°37'111.8
2018-Jun-21 08:00N 44°56' W 125°36'611.8
2018-Jun-21 07:30N 45°02' W 125°36'611.4
2018-Jun-21 06:59N 45°08' W 125°36'611.5
2018-Jun-21 06:30N 45°13' W 125°35'811.8
2018-Jun-21 05:49N 45°21' W 125°35'411.9
2018-Jun-21 05:30N 45°25' W 125°34'611.5
2018-Jun-21 05:00N 45°31' W 125°34'611.6
2018-Jun-21 04:30N 45°36' W 125°33'611.8
2018-Jun-21 04:00N 45°42' W 125°32'711.7
2018-Jun-21 03:25N 45°49' W 125°32'912.5
2018-Jun-21 02:40N 45°58' W 125°32'311.7
2018-Jun-21 02:26N 46°01' W 125°31'711.0
2018-Jun-21 01:49N 46°08' W 125°31'613.2
2018-Jun-21 01:22N 46°14' W 125°30'511.8
2018-Jun-21 00:59N 46°18' W 125°30'611.6
2018-Jun-21 00:30N 46°24' W 125°30'811.3
2018-Jun-20 23:46N 46°32' W 125°29'511.9
2018-Jun-20 23:19N 46°38' W 125°28'611.7
2018-Jun-20 22:49N 46°43' W 125°28'511.7
2018-Jun-20 22:23N 46°49' W 125°27'714.9
2018-Jun-20 21:55N 46°56' W 125°27'4 8.5
2018-Jun-20 21:28N 46°59' W 125°27'715.2
2018-Jun-20 21:00N 47°06' W 125°26'610.2
2018-Jun-20 20:27N 47°12' W 125°25'510.4
2018-Jun-20 19:58N 47°17' W 125°25'711.9
2018-Jun-20 19:22N 47°24' W 125°24'412.0
2018-Jun-20 19:00N 47°28' W 125°24'812.7
2018-Jun-20 18:24N 47°36' W 125°23'811.4
2018-Jun-20 17:45N 47°44' W 125°22'2411.8
2018-Jun-20 15:41N 48°08' W 125°20'211.7
2018-Jun-20 15:30N 48°10' W 125°20'611.0
2018-Jun-20 14:55N 48°16' W 125°18'511.3
2018-Jun-20 14:29N 48°20' W 125°13'611.2
2018-Jun-20 13:59N 48°24' W 125°08'510.9
2018-Jun-20 13:30N 48°29' W 125°04'5 9.8
2018-Jun-20 13:00N 48°31' W 124°57'611.6
2018-Jun-20 12:30N 48°31' W 124°48'612.2
2018-Jun-20 12:00N 48°30' W 124°39'612.3
2018-Jun-20 11:30N 48°28' W 124°31'612.3
2018-Jun-20 11:00N 48°25' W 124°22'612.5
2018-Jun-20 10:30N 48°22' W 124°14'612.7
2018-Jun-20 10:00N 48°20' W 124°05'713.1
2018-Jun-20 09:29N 48°18' W 123°55'712.9
2018-Jun-20 08:59N 48°17' W 123°45'1211.7
2018-Jun-20 07:57N 48°19' W 123°28'510.9
2018-Jun-20 07:30N 48°23' W 123°24'5 9.6
2018-Jun-20 07:00N 48°23' W 123°17'610.4
2018-Jun-20 06:28N 48°28' W 123°12'510.7
2018-Jun-20 05:58N 48°33' W 123°13'510.0
2018-Jun-20 05:30N 48°38' W 123°15'5 8.8
2018-Jun-20 04:59N 48°42' W 123°14'510.1
2018-Jun-20 04:30N 48°44' W 123°08'5 9.5
2018-Jun-20 04:00N 48°47' W 123°02'4 8.3
2018-Jun-20 03:28N 48°51' W 123°03'510.8
2018-Jun-20 03:00N 48°55' W 123°09'510.9
2018-Jun-20 02:30N 48°58' W 123°15'510.6
2018-Jun-20 02:00N 49°02' W 123°21'5 9.9
2018-Jun-20 01:28N 49°07' W 123°24'511.7
2018-Jun-20 01:00N 49°12' W 123°22'611.5
2018-Jun-20 00:30N 49°17' W 123°18'511.1
2018-Jun-20 00:00N 49°19' W 123°10'4 8.3
2018-Jun-19 23:30N 49°18' W 123°05'0 0.9
2018-Jun-19 23:00N 49°18' W 123°04'0 0.1
2018-Jun-19 22:30N 49°18' W 123°04'0 0.0
2018-Jun-19 22:00N 49°18' W 123°04'0 0.0
2018-Jun-19 21:30N 49°18' W 123°04'0 0.0
2018-Jun-19 21:00N 49°18' W 123°04'0 0.1
2018-Jun-19 20:30N 49°18' W 123°04'0 0.1
2018-Jun-19 20:00N 49°18' W 123°04'0 0.2
2018-Jun-19 19:30N 49°18' W 123°04'0 0.2
2018-Jun-19 19:00N 49°18' W 123°04'0 0.1
2018-Jun-19 18:30N 49°18' W 123°04'0 0.0
2018-Jun-19 18:00N 49°18' W 123°04'0 0.1
2018-Jun-19 17:30N 49°18' W 123°04'0 0.0
2018-Jun-19 16:57N 49°18' W 123°04'0 0.1
2018-Jun-19 16:30N 49°18' W 123°04'0 0.0
2018-Jun-19 16:00N 49°18' W 123°04'0 0.1
2018-Jun-19 15:30N 49°18' W 123°04'0 0.1
2018-Jun-19 15:00N 49°18' W 123°04'0 0.2
2018-Jun-19 14:30N 49°18' W 123°04'0 0.2
2018-Jun-19 14:00N 49°18' W 123°04'0 0.1
2018-Jun-19 13:27N 49°18' W 123°04'0 0.0
2018-Jun-19 13:00N 49°18' W 123°04'0 0.0
2018-Jun-19 12:30N 49°18' W 123°04'0 0.0
2018-Jun-19 12:00N 49°18' W 123°04'0 0.0
2018-Jun-19 11:27N 49°18' W 123°04'0 0.0
2018-Jun-19 11:00N 49°18' W 123°04'0 0.0
2018-Jun-19 10:30N 49°18' W 123°04'0 0.0
2018-Jun-19 10:00N 49°18' W 123°04'0 0.1
2018-Jun-19 09:30N 49°18' W 123°04'0 0.0
2018-Jun-19 09:00N 49°18' W 123°04'0 0.1
2018-Jun-19 08:30N 49°18' W 123°04'0 0.2
2018-Jun-19 08:00N 49°18' W 123°04'0 0.2
2018-Jun-19 07:30N 49°18' W 123°04'0 0.1
2018-Jun-19 07:00N 49°18' W 123°04'0 0.1
2018-Jun-19 06:30N 49°18' W 123°04'0 0.1
2018-Jun-19 06:00N 49°18' W 123°04'0 0.1
2018-Jun-19 05:30N 49°18' W 123°04'0 0.1
2018-Jun-19 05:00N 49°18' W 123°04'0 0.1
2018-Jun-19 04:30N 49°18' W 123°04'0 0.0
2018-Jun-19 04:00N 49°18' W 123°04'0 0.1
2018-Jun-19 03:30N 49°18' W 123°04'0 0.1
2018-Jun-19 03:00N 49°18' W 123°04'0 0.0
2018-Jun-19 02:30N 49°18' W 123°04'0 0.1
2018-Jun-19 02:00N 49°18' W 123°04'0 0.0
2018-Jun-19 01:30N 49°18' W 123°04'0 0.1
2018-Jun-19 00:57N 49°18' W 123°04'0 0.0
2018-Jun-19 00:30N 49°18' W 123°04'0 0.1
2018-Jun-19 00:00N 49°18' W 123°04'0 0.2
2018-Jun-18 23:30N 49°18' W 123°04'0 0.8
2018-Jun-18 22:57N 49°18' W 123°04'0 0.0
2018-Jun-18 22:30N 49°18' W 123°04'0 0.0
2018-Jun-18 22:00N 49°18' W 123°04'0 0.0
2018-Jun-18 21:30N 49°18' W 123°04'0 0.0
2018-Jun-18 21:00N 49°18' W 123°04'0 0.0
2018-Jun-18 20:30N 49°18' W 123°04'0 0.0
2018-Jun-18 20:00N 49°18' W 123°04'0 0.0
2018-Jun-18 19:30N 49°18' W 123°04'0 0.0
2018-Jun-18 19:00N 49°18' W 123°04'0 0.0
2018-Jun-18 18:27N 49°18' W 123°04'0 0.0
2018-Jun-18 18:00N 49°18' W 123°04'0 0.0
2018-Jun-18 17:30N 49°18' W 123°04'0 0.0
2018-Jun-18 17:00N 49°18' W 123°04'0 0.0
2018-Jun-18 16:30N 49°18' W 123°04'0 0.0
2018-Jun-18 16:00N 49°18' W 123°04'0 0.0
2018-Jun-18 15:30N 49°18' W 123°04'0 0.0
2018-Jun-18 15:00N 49°18' W 123°04'0 0.0
2018-Jun-18 14:30N 49°18' W 123°04'0 0.0
2018-Jun-18 14:00N 49°18' W 123°04'0 0.0
2018-Jun-18 13:30N 49°18' W 123°04'0 0.0
2018-Jun-18 13:00N 49°18' W 123°04'0 0.0
2018-Jun-18 12:30N 49°18' W 123°04'0 0.0
2018-Jun-18 12:00N 49°18' W 123°04'0 0.0
2018-Jun-18 11:30N 49°18' W 123°04'0 0.0
2018-Jun-18 11:00N 49°18' W 123°04'0 0.0
2018-Jun-18 10:30N 49°18' W 123°04'0 0.0
2018-Jun-18 10:00N 49°18' W 123°04'0 0.0
2018-Jun-18 09:30N 49°18' W 123°04'0 0.0
2018-Jun-18 09:00N 49°18' W 123°04'0 0.0
2018-Jun-18 08:30N 49°18' W 123°04'0 0.0
2018-Jun-18 08:00N 49°18' W 123°04'0 0.0
2018-Jun-18 07:30N 49°18' W 123°04'0 0.0
2018-Jun-18 07:00N 49°18' W 123°04'0 0.0
2018-Jun-18 06:30N 49°18' W 123°04'0 0.0
2018-Jun-18 06:00N 49°18' W 123°04'0 0.0
2018-Jun-18 05:30N 49°18' W 123°04'0 0.0
2018-Jun-18 05:00N 49°18' W 123°04'0 0.0
2018-Jun-18 04:30N 49°18' W 123°04'0 0.0
2018-Jun-18 04:00N 49°18' W 123°04'0 0.0
2018-Jun-18 03:30N 49°18' W 123°04'0 0.0
2018-Jun-18 03:00N 49°18' W 123°04'0 0.0
2018-Jun-18 02:30N 49°18' W 123°04'0 0.0
2018-Jun-18 02:00N 49°18' W 123°04'0 0.0
2018-Jun-18 01:30N 49°18' W 123°04'0 0.0
2018-Jun-18 01:00N 49°18' W 123°04'0 0.0
2018-Jun-18 00:30N 49°18' W 123°04'0 0.0
2018-Jun-18 00:00N 49°18' W 123°04'0 0.0
2018-Jun-17 23:30N 49°18' W 123°04'0 0.0
2018-Jun-17 23:00N 49°18' W 123°04'0 0.0
2018-Jun-17 22:30N 49°18' W 123°04'0 0.0
2018-Jun-17 22:00N 49°18' W 123°04'0 0.0
2018-Jun-17 21:30N 49°18' W 123°04'0 0.0
2018-Jun-17 21:00N 49°18' W 123°04'0 0.0
2018-Jun-17 20:30N 49°18' W 123°04'0 0.0
2018-Jun-17 20:00N 49°18' W 123°04'0 0.0
2018-Jun-17 19:30N 49°18' W 123°04'0 0.0
2018-Jun-17 19:00N 49°18' W 123°04'0 0.0
2018-Jun-17 18:30N 49°18' W 123°04'0 0.0
2018-Jun-17 18:00N 49°18' W 123°04'0 0.0
2018-Jun-17 17:30N 49°18' W 123°04'0 0.0
2018-Jun-17 17:00N 49°18' W 123°04'0 0.0
2018-Jun-17 16:30N 49°18' W 123°04'0 0.0
2018-Jun-17 16:00N 49°18' W 123°04'0 0.0
2018-Jun-17 15:30N 49°18' W 123°04'0 0.0
2018-Jun-17 15:00N 49°18' W 123°04'0 0.0
2018-Jun-17 14:30N 49°18' W 123°04'0 0.0
2018-Jun-17 14:00N 49°18' W 123°04'0 0.0
2018-Jun-17 13:30N 49°18' W 123°04'0 0.0
2018-Jun-17 13:00N 49°18' W 123°04'0 0.0
2018-Jun-17 12:30N 49°18' W 123°04'0 0.0
2018-Jun-17 12:00N 49°18' W 123°04'0 0.0
2018-Jun-17 11:30N 49°18' W 123°04'0 0.0
2018-Jun-17 11:00N 49°18' W 123°04'0 0.0
2018-Jun-17 10:30N 49°18' W 123°04'0 0.0
2018-Jun-17 10:00N 49°18' W 123°04'0 0.0
2018-Jun-17 09:30N 49°18' W 123°04'0 0.0
2018-Jun-17 09:00N 49°18' W 123°04'0 0.0
2018-Jun-17 08:30N 49°18' W 123°04'0 0.0
2018-Jun-17 08:00N 49°18' W 123°04'0 0.0
2018-Jun-17 07:30N 49°18' W 123°04'0 0.0
2018-Jun-17 07:00N 49°18' W 123°04'0 0.0
2018-Jun-17 06:30N 49°18' W 123°04'0 0.0
2018-Jun-17 06:00N 49°18' W 123°04'0 0.0
2018-Jun-17 05:30N 49°18' W 123°04'0 0.0
2018-Jun-17 05:00N 49°18' W 123°04'0 0.0
2018-Jun-17 04:30N 49°18' W 123°04'0 0.0
2018-Jun-17 04:00N 49°18' W 123°04'0 0.0
2018-Jun-17 03:30N 49°18' W 123°04'0 0.0
2018-Jun-17 03:00N 49°18' W 123°04'0 0.0
2018-Jun-17 02:30N 49°18' W 123°04'0 0.0
2018-Jun-17 02:00N 49°18' W 123°04'0 0.0
2018-Jun-17 01:30N 49°18' W 123°04'0 0.0
2018-Jun-17 01:00N 49°18' W 123°04'0 0.0
2018-Jun-17 00:30N 49°18' W 123°04'0 0.0
2018-Jun-17 00:00N 49°18' W 123°04'0 0.0
2018-Jun-16 23:30N 49°18' W 123°04'0 0.0
2018-Jun-16 23:00N 49°18' W 123°04'0 0.0
2018-Jun-16 22:30N 49°18' W 123°04'0 0.0
2018-Jun-16 22:00N 49°18' W 123°04'0 0.0
2018-Jun-16 21:30N 49°18' W 123°04'0 0.0
2018-Jun-16 21:00N 49°18' W 123°04'0 0.0
2018-Jun-16 20:30N 49°18' W 123°04'0 0.0
2018-Jun-16 20:00N 49°18' W 123°04'0 0.0
2018-Jun-16 19:30N 49°18' W 123°04'0 0.0
2018-Jun-16 19:00N 49°18' W 123°04'0 0.0
2018-Jun-16 18:30N 49°18' W 123°04'0 0.0
2018-Jun-16 18:00N 49°18' W 123°04'0 0.0
2018-Jun-16 17:30N 49°18' W 123°04'0 0.0
2018-Jun-16 17:00N 49°18' W 123°04'0 0.0
2018-Jun-16 16:30N 49°18' W 123°04'0 0.0
2018-Jun-16 16:00N 49°18' W 123°04'0 0.0
2018-Jun-16 15:30N 49°18' W 123°04'0 0.0
2018-Jun-16 15:00N 49°18' W 123°04'0 0.0
2018-Jun-16 14:30N 49°18' W 123°04'0 0.0
2018-Jun-16 13:57N 49°18' W 123°04'0 0.0
2018-Jun-16 13:30N 49°18' W 123°04'0 0.0
2018-Jun-16 13:00N 49°18' W 123°04'0 0.0
2018-Jun-16 12:30N 49°18' W 123°04'0 0.0
2018-Jun-16 12:00N 49°18' W 123°04'0 0.0
2018-Jun-16 11:30N 49°18' W 123°04'0 0.0
2018-Jun-16 11:00N 49°18' W 123°04'0 0.0
2018-Jun-16 10:30N 49°18' W 123°04'0 0.0
2018-Jun-16 10:00N 49°18' W 123°04'0 0.0
2018-Jun-16 09:30N 49°18' W 123°04'0 0.0
2018-Jun-16 09:00N 49°18' W 123°04'0 0.0
2018-Jun-16 08:30N 49°18' W 123°04'0 0.0
2018-Jun-16 08:00N 49°18' W 123°04'0 0.0
2018-Jun-16 07:30N 49°18' W 123°04'0 0.0
2018-Jun-16 07:00N 49°18' W 123°04'0 0.0
2018-Jun-16 06:30N 49°18' W 123°04'0 0.0
2018-Jun-16 06:00N 49°18' W 123°04'0 0.0
2018-Jun-16 05:30N 49°18' W 123°04'0 0.0
2018-Jun-16 05:00N 49°18' W 123°04'0 0.0
2018-Jun-16 04:30N 49°18' W 123°04'0 0.0
2018-Jun-16 04:00N 49°18' W 123°04'0 0.0
2018-Jun-16 03:30N 49°18' W 123°04'0 0.0
2018-Jun-16 03:00N 49°18' W 123°04'0 0.0
2018-Jun-16 02:30N 49°18' W 123°04'0 0.0
2018-Jun-16 02:00N 49°18' W 123°04'0 0.0
2018-Jun-16 01:30N 49°18' W 123°04'0 0.0
2018-Jun-16 01:00N 49°18' W 123°04'0 0.0
2018-Jun-16 00:30N 49°18' W 123°04'0 0.0
2018-Jun-16 00:00N 49°18' W 123°04'0 0.0
2018-Jun-15 23:30N 49°18' W 123°04'0 0.8
2018-Jun-15 23:00N 49°18' W 123°05'1 1.2
2018-Jun-15 22:30N 49°18' W 123°05'0 0.1
2018-Jun-15 22:00N 49°18' W 123°06'0 0.2
2018-Jun-15 21:31N 49°18' W 123°06'1 1.7
2018-Jun-15 21:00N 49°18' W 123°07'4 7.6
2018-Jun-15 20:30N 49°19' W 123°13'2 3.2
2018-Jun-15 20:00N 49°20' W 123°15'0 0.0
2018-Jun-15 19:12N 49°20' W 123°15'0 0.4
2018-Jun-15 18:54N 49°20' W 123°15'0 0.1
2018-Jun-15 18:30N 49°20' W 123°15'0 0.1
2018-Jun-15 17:48N 49°20' W 123°15'0 0.1
2018-Jun-15 17:24N 49°20' W 123°15'0 0.0
2018-Jun-15 17:00N 49°20' W 123°15'0 0.0
2018-Jun-15 16:24N 49°20' W 123°15'0 0.1
2018-Jun-15 15:57N 49°20' W 123°15'0 0.1
2018-Jun-15 15:30N 49°20' W 123°15'0 0.1
2018-Jun-15 14:57N 49°20' W 123°15'0 0.0
2018-Jun-15 14:27N 49°20' W 123°15'0 0.0
2018-Jun-15 13:57N 49°20' W 123°15'0 0.0
2018-Jun-15 13:30N 49°20' W 123°15'0 0.1
2018-Jun-15 12:57N 49°20' W 123°15'0 0.2
2018-Jun-15 12:30N 49°20' W 123°15'0 0.3
2018-Jun-15 11:57N 49°20' W 123°15'0 0.1
2018-Jun-15 11:27N 49°20' W 123°15'0 0.1
2018-Jun-15 11:00N 49°20' W 123°15'0 0.1
2018-Jun-15 10:30N 49°20' W 123°15'0 0.1
2018-Jun-15 09:54N 49°20' W 123°15'0 0.1
2018-Jun-15 09:30N 49°20' W 123°15'0 0.0
2018-Jun-15 09:00N 49°20' W 123°15'0 0.2
2018-Jun-15 08:30N 49°20' W 123°15'0 0.1
2018-Jun-15 07:57N 49°20' W 123°15'0 0.2
2018-Jun-15 07:30N 49°20' W 123°15'0 0.1
2018-Jun-15 07:00N 49°20' W 123°15'0 0.0
2018-Jun-15 06:21N 49°20' W 123°15'0 0.1
2018-Jun-15 05:54N 49°20' W 123°15'0 0.1
2018-Jun-15 05:27N 49°20' W 123°15'0 0.2
2018-Jun-15 05:00N 49°20' W 123°15'0 0.3
2018-Jun-15 04:30N 49°20' W 123°15'0 0.2
2018-Jun-15 04:00N 49°20' W 123°15'0 0.0
2018-Jun-15 03:30N 49°20' W 123°15'0 0.1
2018-Jun-15 03:00N 49°20' W 123°15'0 0.0
2018-Jun-15 02:30N 49°20' W 123°15'0 0.0
2018-Jun-15 02:00N 49°20' W 123°15'0 0.0
2018-Jun-15 01:30N 49°20' W 123°15'0 0.0
2018-Jun-15 01:00N 49°20' W 123°15'0 0.0
2018-Jun-15 00:30N 49°20' W 123°15'0 0.0
2018-Jun-15 00:00N 49°20' W 123°15'0 0.0
2018-Jun-14 23:27N 49°20' W 123°15'0 0.3
2018-Jun-14 22:57N 49°20' W 123°15'0 0.1
2018-Jun-14 22:21N 49°20' W 123°15'0 0.2
2018-Jun-14 21:51N 49°20' W 123°15'0 0.1
2018-Jun-14 21:30N 49°20' W 123°15'0 0.1
2018-Jun-14 21:00N 49°20' W 123°15'0 0.0
2018-Jun-14 20:21N 49°20' W 123°15'0 0.0
2018-Jun-14 19:57N 49°20' W 123°15'0 0.0
2018-Jun-14 19:27N 49°20' W 123°15'0 0.0
2018-Jun-14 18:57N 49°20' W 123°15'0 0.0
2018-Jun-14 18:27N 49°20' W 123°15'0 0.0
2018-Jun-14 18:00N 49°20' W 123°15'0 0.0
2018-Jun-14 17:30N 49°20' W 123°15'0 0.0
2018-Jun-14 16:45N 49°20' W 123°15'0 0.1
2018-Jun-14 16:27N 49°20' W 123°15'0 0.0
2018-Jun-14 15:57N 49°20' W 123°15'0 0.0
2018-Jun-14 15:30N 49°20' W 123°15'0 0.0
2018-Jun-14 15:00N 49°20' W 123°15'0 0.0
2018-Jun-14 14:30N 49°20' W 123°15'0 0.0
2018-Jun-14 13:57N 49°20' W 123°15'0 0.1
2018-Jun-14 13:27N 49°20' W 123°15'0 0.0
2018-Jun-14 13:00N 49°20' W 123°15'0 0.1
2018-Jun-14 12:24N 49°20' W 123°15'0 0.2
2018-Jun-14 12:00N 49°20' W 123°15'0 0.1
2018-Jun-14 11:30N 49°20' W 123°15'0 0.1
2018-Jun-14 11:00N 49°20' W 123°15'0 0.1
2018-Jun-14 10:30N 49°20' W 123°15'0 0.0
2018-Jun-14 09:57N 49°20' W 123°15'0 0.0
2018-Jun-14 09:30N 49°20' W 123°15'0 0.1
2018-Jun-14 08:57N 49°20' W 123°15'0 0.1
2018-Jun-14 08:30N 49°20' W 123°15'0 0.1
2018-Jun-14 08:00N 49°20' W 123°15'0 0.0
2018-Jun-14 07:27N 49°20' W 123°15'0 0.0
2018-Jun-14 06:57N 49°20' W 123°15'0 0.0
2018-Jun-14 06:30N 49°20' W 123°15'0 0.0
2018-Jun-14 05:57N 49°20' W 123°15'0 0.1
2018-Jun-14 05:27N 49°20' W 123°15'0 0.2
2018-Jun-14 05:00N 49°20' W 123°15'0 0.3
2018-Jun-14 04:30N 49°20' W 123°15'0 0.2
2018-Jun-14 04:00N 49°20' W 123°15'0 0.1
2018-Jun-14 03:30N 49°20' W 123°15'0 0.0
2018-Jun-14 03:00N 49°20' W 123°15'0 0.0
2018-Jun-14 02:27N 49°20' W 123°15'0 0.0
2018-Jun-14 01:57N 49°20' W 123°15'0 0.1
2018-Jun-14 01:24N 49°20' W 123°15'0 0.1
2018-Jun-14 00:57N 49°20' W 123°15'0 0.1
2018-Jun-14 00:30N 49°20' W 123°15'0 0.1
2018-Jun-14 00:00N 49°20' W 123°15'0 0.1
2018-Jun-13 23:30N 49°20' W 123°15'0 0.1
2018-Jun-13 22:57N 49°20' W 123°15'0 0.1
2018-Jun-13 22:27N 49°20' W 123°15'0 0.1
2018-Jun-13 22:00N 49°20' W 123°15'0 0.3
2018-Jun-13 21:30N 49°20' W 123°15'0 0.0
2018-Jun-13 21:00N 49°20' W 123°15'0 0.0
2018-Jun-13 20:30N 49°20' W 123°15'0 0.0
2018-Jun-13 20:00N 49°20' W 123°15'0 0.0
2018-Jun-13 19:30N 49°20' W 123°15'0 0.0
2018-Jun-13 18:51N 49°20' W 123°15'0 0.0
2018-Jun-13 18:18N 49°20' W 123°15'0 0.1
2018-Jun-13 18:00N 49°20' W 123°15'0 0.1
2018-Jun-13 17:24N 49°20' W 123°15'0 0.1
2018-Jun-13 17:00N 49°20' W 123°15'0 0.0
2018-Jun-13 16:30N 49°20' W 123°15'0 0.1
2018-Jun-13 16:00N 49°20' W 123°15'0 0.0
2018-Jun-13 15:30N 49°20' W 123°15'0 0.0
2018-Jun-13 15:00N 49°20' W 123°15'0 0.1
2018-Jun-13 14:27N 49°20' W 123°15'0 0.0
2018-Jun-13 14:00N 49°20' W 123°15'0 0.1
2018-Jun-13 13:27N 49°20' W 123°15'0 0.0
2018-Jun-13 12:51N 49°20' W 123°15'0 0.1
2018-Jun-13 12:27N 49°20' W 123°15'0 0.0
2018-Jun-13 12:00N 49°20' W 123°15'0 0.0
2018-Jun-13 11:27N 49°20' W 123°15'0 0.0
2018-Jun-13 11:00N 49°20' W 123°15'0 0.0
2018-Jun-13 10:30N 49°20' W 123°15'0 0.0
2018-Jun-13 09:54N 49°20' W 123°15'0 0.0
2018-Jun-13 09:27N 49°20' W 123°15'0 0.1
2018-Jun-13 08:57N 49°20' W 123°15'0 0.0
2018-Jun-13 08:30N 49°20' W 123°15'0 0.1
2018-Jun-13 08:00N 49°20' W 123°15'0 0.0
2018-Jun-13 07:27N 49°20' W 123°15'0 0.1
2018-Jun-13 06:57N 49°20' W 123°15'0 0.0
2018-Jun-13 06:30N 49°20' W 123°15'0 0.0
2018-Jun-13 05:54N 49°20' W 123°15'0 0.0
2018-Jun-13 05:27N 49°20' W 123°15'0 0.0
2018-Jun-13 05:00N 49°20' W 123°15'0 0.2
2018-Jun-13 04:30N 49°20' W 123°15'0 0.1
2018-Jun-13 03:51N 49°20' W 123°15'0 0.1
2018-Jun-13 03:30N 49°20' W 123°15'0 0.0
2018-Jun-13 03:00N 49°20' W 123°15'0 0.2
2018-Jun-13 02:27N 49°20' W 123°15'0 0.3
2018-Jun-13 02:00N 49°20' W 123°15'0 0.2
2018-Jun-13 01:30N 49°20' W 123°15'0 0.0
2018-Jun-13 01:00N 49°20' W 123°15'0 0.0
2018-Jun-13 00:30N 49°20' W 123°15'0 0.1
2018-Jun-12 23:57N 49°20' W 123°15'0 0.1
2018-Jun-12 23:30N 49°20' W 123°15'0 0.0
2018-Jun-12 22:54N 49°20' W 123°15'0 0.0
2018-Jun-12 22:30N 49°20' W 123°15'0 0.1
2018-Jun-12 22:00N 49°20' W 123°15'0 0.1
2018-Jun-12 21:27N 49°20' W 123°15'0 0.4
2018-Jun-12 21:00N 49°20' W 123°15'0 0.1
2018-Jun-12 20:27N 49°20' W 123°15'0 0.1
2018-Jun-12 19:51N 49°20' W 123°15'0 0.1
2018-Jun-12 19:24N 49°20' W 123°15'  

Dump ship's entire track history